sensor_id;sensor_type;location;lat;lon;timestamp;pressure;altitude;pressure_sealevel;temperature;humidity
50484;BME280;36409;52.168;20.878;2023-09-30T00:01:58;100647.05;;;15.82;60.81
50484;BME280;36409;52.168;20.878;2023-09-30T00:04:28;100639.15;;;15.82;60.92
50484;BME280;36409;52.168;20.878;2023-09-30T00:06:58;100640.87;;;15.83;60.85
50484;BME280;36409;52.168;20.878;2023-09-30T00:09:27;100636.45;;;15.84;60.84
50484;BME280;36409;52.168;20.878;2023-09-30T00:11:56;100637.37;;;15.84;60.40
50484;BME280;36409;52.168;20.878;2023-09-30T00:14:25;100636.45;;;15.84;60.80
50484;BME280;36409;52.168;20.878;2023-09-30T00:17:00;100637.37;;;15.84;60.39
50484;BME280;36409;52.168;20.878;2023-09-30T00:19:29;100635.58;;;15.85;60.73
50484;BME280;36409;52.168;20.878;2023-09-30T00:22:00;100632.05;;;15.86;60.98
50484;BME280;36409;52.168;20.878;2023-09-30T00:24:29;100626.78;;;15.86;61.04
50484;BME280;36409;52.168;20.878;2023-09-30T00:26:58;100627.66;;;15.86;61.02
50484;BME280;36409;52.168;20.878;2023-09-30T00:29:27;100625.81;;;15.88;60.93
50484;BME280;36409;52.168;20.878;2023-09-30T00:31:56;100623.16;;;15.90;61.26
50484;BME280;36409;52.168;20.878;2023-09-30T00:34:25;100620.55;;;15.88;61.23
50484;BME280;36409;52.168;20.878;2023-09-30T00:36:54;100615.25;;;15.90;61.37
50484;BME280;36409;52.168;20.878;2023-09-30T00:39:24;100619.61;;;15.91;60.80
50484;BME280;36409;52.168;20.878;2023-09-30T00:41:55;100619.61;;;15.91;61.01
50484;BME280;36409;52.168;20.878;2023-09-30T00:44:24;100629.23;;;15.92;60.58
50484;BME280;36409;52.168;20.878;2023-09-30T00:46:54;100625.66;;;15.93;60.79
50484;BME280;36409;52.168;20.878;2023-09-30T00:49:28;100622.18;;;15.93;60.88
50484;BME280;36409;52.168;20.878;2023-09-30T00:51:58;100620.36;;;15.95;61.45
50484;BME280;36409;52.168;20.878;2023-09-30T00:54:30;100623.91;;;15.94;61.31
50484;BME280;36409;52.168;20.878;2023-09-30T00:56:59;100628.27;;;15.95;61.17
50484;BME280;36409;52.168;20.878;2023-09-30T00:59:32;100630.89;;;15.95;61.23
50484;BME280;36409;52.168;20.878;2023-09-30T01:02:00;100627.38;;;15.94;60.78
50484;BME280;36409;52.168;20.878;2023-09-30T01:04:31;100632.63;;;15.96;61.43
50484;BME280;36409;52.168;20.878;2023-09-30T01:07:00;100640.52;;;15.96;61.65
50484;BME280;36409;52.168;20.878;2023-09-30T01:09:29;100629.11;;;15.95;61.00
50484;BME280;36409;52.168;20.878;2023-09-30T01:12:00;100637.98;;;15.93;61.41
50484;BME280;36409;52.168;20.878;2023-09-30T01:14:32;100642.42;;;15.90;60.92
50484;BME280;36409;52.168;20.878;2023-09-30T01:17:02;100631.05;;;15.90;61.47
50484;BME280;36409;52.168;20.878;2023-09-30T01:19:32;100633.67;;;15.90;61.37
50484;BME280;36409;52.168;20.878;2023-09-30T01:22:04;100635.43;;;15.89;61.33
50484;BME280;36409;52.168;20.878;2023-09-30T01:24:39;100625.94;;;15.85;61.78
50484;BME280;36409;52.168;20.878;2023-09-30T01:27:09;100624.20;;;15.83;61.67
50484;BME280;36409;52.168;20.878;2023-09-30T01:29:38;100627.72;;;15.83;61.69
50484;BME280;36409;52.168;20.878;2023-09-30T01:32:09;100624.27;;;15.81;62.21
50484;BME280;36409;52.168;20.878;2023-09-30T01:34:38;100612.83;;;15.82;61.67
50484;BME280;36409;52.168;20.878;2023-09-30T01:37:07;100620.79;;;15.81;62.15
50484;BME280;36409;52.168;20.878;2023-09-30T01:39:37;100619.91;;;15.80;61.59
50484;BME280;36409;52.168;20.878;2023-09-30T01:42:06;100618.19;;;15.79;61.91
50484;BME280;36409;52.168;20.878;2023-09-30T01:44:38;100610.35;;;15.78;62.25
50484;BME280;36409;52.168;20.878;2023-09-30T01:47:07;100603.36;;;15.77;62.30
50484;BME280;36409;52.168;20.878;2023-09-30T01:49:36;100607.72;;;15.78;62.35
50484;BME280;36409;52.168;20.878;2023-09-30T01:52:05;100611.20;;;15.78;62.29
50484;BME280;36409;52.168;20.878;2023-09-30T01:54:37;100603.36;;;15.77;62.93
50484;BME280;36409;52.168;20.878;2023-09-30T01:57:09;100611.31;;;15.75;62.73
50484;BME280;36409;52.168;20.878;2023-09-30T01:59:38;100605.18;;;15.74;62.74
50484;BME280;36409;52.168;20.878;2023-09-30T02:02:07;100599.09;;;15.72;62.21
50484;BME280;36409;52.168;20.878;2023-09-30T02:04:36;100604.48;;;15.69;62.88
50484;BME280;36409;52.168;20.878;2023-09-30T02:07:06;100596.61;;;15.68;63.00
50484;BME280;36409;52.168;20.878;2023-09-30T02:09:35;100594.89;;;15.67;62.80
50484;BME280;36409;52.168;20.878;2023-09-30T02:12:07;100601.06;;;15.66;62.80
50484;BME280;36409;52.168;20.878;2023-09-30T02:14:38;100591.41;;;15.66;62.97
50484;BME280;36409;52.168;20.878;2023-09-30T02:17:10;100600.16;;;15.67;62.82
50484;BME280;36409;52.168;20.878;2023-09-30T02:22:08;100602.78;;;15.67;62.86
50484;BME280;36409;52.168;20.878;2023-09-30T02:24:37;100594.95;;;15.65;63.45
50484;BME280;36409;52.168;20.878;2023-09-30T02:27:08;100595.02;;;15.64;63.10
50484;BME280;36409;52.168;20.878;2023-09-30T02:29:37;100598.55;;;15.63;62.70
50484;BME280;36409;52.168;20.878;2023-09-30T02:32:06;100593.37;;;15.59;63.26
50484;BME280;36409;52.168;20.878;2023-09-30T02:34:35;100601.27;;;15.59;63.43
50484;BME280;36409;52.168;20.878;2023-09-30T02:37:04;100598.70;;;15.58;63.46
50484;BME280;36409;52.168;20.878;2023-09-30T02:39:33;100598.70;;;15.58;63.56
50484;BME280;36409;52.168;20.878;2023-09-30T02:42:02;100599.55;;;15.58;63.31
50484;BME280;36409;52.168;20.878;2023-09-30T02:44:34;100606.53;;;15.59;63.30
50484;BME280;36409;52.168;20.878;2023-09-30T02:47:06;100592.55;;;15.57;63.42
50484;BME280;36409;52.168;20.878;2023-09-30T02:49:37;100589.92;;;15.57;63.87
50484;BME280;36409;52.168;20.878;2023-09-30T02:52:07;100605.69;;;15.59;63.33
50484;BME280;36409;52.168;20.878;2023-09-30T02:54:45;100596.01;;;15.59;64.19
50484;BME280;36409;52.168;20.878;2023-09-30T02:57:14;100595.19;;;15.57;63.53
50484;BME280;36409;52.168;20.878;2023-09-30T02:59:44;100588.27;;;15.55;64.00
50484;BME280;36409;52.168;20.878;2023-09-30T03:02:13;100592.62;;;15.56;63.63
50484;BME280;36409;52.168;20.878;2023-09-30T03:04:43;100593.52;;;15.55;63.64
50484;BME280;36409;52.168;20.878;2023-09-30T03:07:16;100591.80;;;15.54;63.83
50484;BME280;36409;52.168;20.878;2023-09-30T03:09:46;100588.35;;;15.52;63.83
50484;BME280;36409;52.168;20.878;2023-09-30T03:12:16;100591.04;;;15.50;63.28
50484;BME280;36409;52.168;20.878;2023-09-30T03:14:45;100590.16;;;15.50;63.97
50484;BME280;36409;52.168;20.878;2023-09-30T03:17:15;100581.36;;;15.51;63.82
50484;BME280;36409;52.168;20.878;2023-09-30T03:19:45;100583.97;;;15.52;64.35
50484;BME280;36409;52.168;20.878;2023-09-30T03:22:16;100588.27;;;15.55;63.86
50484;BME280;36409;52.168;20.878;2023-09-30T03:24:45;100580.43;;;15.53;63.87
50484;BME280;36409;52.168;20.878;2023-09-30T03:27:14;100581.27;;;15.54;63.77
50484;BME280;36409;52.168;20.878;2023-09-30T03:29:43;100585.63;;;15.55;64.41
50484;BME280;36409;52.168;20.878;2023-09-30T03:32:13;100580.37;;;15.55;63.94
50484;BME280;36409;52.168;20.878;2023-09-30T03:34:41;100580.37;;;15.55;64.72
50484;BME280;36409;52.168;20.878;2023-09-30T03:37:13;100585.69;;;15.53;64.13
50484;BME280;36409;52.168;20.878;2023-09-30T03:39:43;100591.04;;;15.50;64.02
50484;BME280;36409;52.168;20.878;2023-09-30T03:42:12;100581.36;;;15.51;64.85
50484;BME280;36409;52.168;20.878;2023-09-30T03:44:42;100580.52;;;15.50;64.56
50484;BME280;36409;52.168;20.878;2023-09-30T03:47:11;100582.24;;;15.51;64.90
50484;BME280;36409;52.168;20.878;2023-09-30T03:49:42;100590.13;;;15.51;64.30
50484;BME280;36409;52.168;20.878;2023-09-30T03:52:11;100582.24;;;15.51;64.95
50484;BME280;36409;52.168;20.878;2023-09-30T03:54:44;100591.89;;;15.51;64.72
50484;BME280;36409;52.168;20.878;2023-09-30T03:57:13;100584.05;;;15.49;64.76
50484;BME280;36409;52.168;20.878;2023-09-30T03:59:44;100584.05;;;15.49;64.81
50484;BME280;36409;52.168;20.878;2023-09-30T04:02:14;100595.48;;;15.48;64.81
50484;BME280;36409;52.168;20.878;2023-09-30T04:04:43;100594.52;;;15.51;64.62
50484;BME280;36409;52.168;20.878;2023-09-30T04:07:13;100599.78;;;15.51;64.91
50484;BME280;36409;52.168;20.878;2023-09-30T04:09:42;100591.04;;;15.50;64.56
50484;BME280;36409;52.168;20.878;2023-09-30T04:12:11;100586.63;;;15.51;65.12
50484;BME280;36409;52.168;20.878;2023-09-30T04:14:40;100583.15;;;15.50;64.86
50484;BME280;36409;52.168;20.878;2023-09-30T04:17:11;100580.45;;;15.52;65.27
50484;BME280;36409;52.168;20.878;2023-09-30T04:19:40;100576.92;;;15.53;65.12
50484;BME280;36409;52.168;20.878;2023-09-30T04:22:12;100583.06;;;15.53;65.16
50484;BME280;36409;52.168;20.878;2023-09-30T04:24:41;100577.73;;;15.55;65.02
50484;BME280;36409;52.168;20.878;2023-09-30T04:27:10;100582.03;;;15.57;64.86
50484;BME280;36409;52.168;20.878;2023-09-30T04:29:40;100581.12;;;15.58;65.23
50484;BME280;36409;52.168;20.878;2023-09-30T04:32:10;100583.67;;;15.62;65.62
50484;BME280;36409;52.168;20.878;2023-09-30T04:34:39;100570.45;;;15.63;65.51
50484;BME280;36409;52.168;20.878;2023-09-30T04:37:08;100578.32;;;15.65;65.26
50484;BME280;36409;52.168;20.878;2023-09-30T04:39:40;100577.38;;;15.66;65.21
50484;BME280;36409;52.168;20.878;2023-09-30T04:42:09;100564.23;;;15.66;65.50
50484;BME280;36409;52.168;20.878;2023-09-30T04:44:42;100576.53;;;15.65;65.40
50484;BME280;36409;52.168;20.878;2023-09-30T04:47:12;100580.02;;;15.66;65.32
50484;BME280;36409;52.168;20.878;2023-09-30T04:49:42;100571.27;;;15.65;64.78
50484;BME280;36409;52.168;20.878;2023-09-30T04:52:14;100576.47;;;15.67;64.94
50484;BME280;36409;52.168;20.878;2023-09-30T04:54:43;100575.56;;;15.68;65.67
50484;BME280;36409;52.168;20.878;2023-09-30T04:57:13;100567.67;;;15.68;64.94
50484;BME280;36409;52.168;20.878;2023-09-30T04:59:43;100581.64;;;15.70;65.57
50484;BME280;36409;52.168;20.878;2023-09-30T05:02:12;100574.63;;;15.70;65.39
50484;BME280;36409;52.168;20.878;2023-09-30T05:04:43;100578.05;;;15.72;65.55
50484;BME280;36409;52.168;20.878;2023-09-30T05:07:15;100582.41;;;15.73;65.00
50484;BME280;36409;52.168;20.878;2023-09-30T05:09:44;100582.38;;;15.75;65.78
50484;BME280;36409;52.168;20.878;2023-09-30T05:12:13;100582.31;;;15.77;65.03
50484;BME280;36409;52.168;20.878;2023-09-30T05:14:43;100583.22;;;15.75;65.34
50484;BME280;36409;52.168;20.878;2023-09-30T05:17:12;100579.68;;;15.77;65.51
50484;BME280;36409;52.168;20.878;2023-09-30T05:19:44;100591.99;;;15.76;65.37
50484;BME280;36409;52.168;20.878;2023-09-30T05:22:14;100588.42;;;15.77;65.35
50484;BME280;36409;52.168;20.878;2023-09-30T05:24:43;100595.38;;;15.80;65.25
50484;BME280;36409;52.168;20.878;2023-09-30T05:27:12;100593.59;;;15.80;65.42
50484;BME280;36409;52.168;20.878;2023-09-30T05:29:41;100592.63;;;15.83;65.43
50484;BME280;36409;52.168;20.878;2023-09-30T05:32:11;100599.61;;;15.84;65.50
50484;BME280;36409;52.168;20.878;2023-09-30T05:34:42;100590.00;;;15.84;65.28
50484;BME280;36409;52.168;20.878;2023-09-30T05:37:12;100600.44;;;15.87;65.43
50484;BME280;36409;52.168;20.878;2023-09-30T05:39:41;100603.00;;;15.89;65.40
50484;BME280;36409;52.168;20.878;2023-09-30T05:42:12;100613.47;;;15.90;65.47
50484;BME280;36409;52.168;20.878;2023-09-30T05:44:41;100614.28;;;15.93;65.80
50484;BME280;36409;52.168;20.878;2023-09-30T05:47:14;100614.19;;;15.96;65.31
50484;BME280;36409;52.168;20.878;2023-09-30T05:49:44;100619.33;;;15.99;65.80
50484;BME280;36409;52.168;20.878;2023-09-30T05:52:14;100624.48;;;16.03;65.73
50484;BME280;36409;52.168;20.878;2023-09-30T05:54:44;100626.98;;;16.06;66.07
50484;BME280;36409;52.168;20.878;2023-09-30T05:57:13;100633.00;;;16.10;65.22
50484;BME280;36409;52.168;20.878;2023-09-30T05:59:42;100636.52;;;16.11;65.55
50484;BME280;36409;52.168;20.878;2023-09-30T06:02:11;100646.95;;;16.14;65.68
50484;BME280;36409;52.168;20.878;2023-09-30T06:04:43;100645.98;;;16.16;65.78
50484;BME280;36409;52.168;20.878;2023-09-30T06:07:15;100642.38;;;16.19;65.94
50484;BME280;36409;52.168;20.878;2023-09-30T06:09:44;100642.34;;;16.20;66.37
50484;BME280;36409;52.168;20.878;2023-09-30T06:12:13;100640.47;;;16.24;66.19
50484;BME280;36409;52.168;20.878;2023-09-30T06:14:42;100654.45;;;16.26;65.99
50484;BME280;36409;52.168;20.878;2023-09-30T06:17:14;100647.33;;;16.28;66.45
50484;BME280;36409;52.168;20.878;2023-09-30T06:19:43;100642.84;;;16.32;66.26
50484;BME280;36409;52.168;20.878;2023-09-30T06:22:13;100648.05;;;16.33;66.00
50484;BME280;36409;52.168;20.878;2023-09-30T06:24:45;100648.87;;;16.35;66.37
50484;BME280;36409;52.168;20.878;2023-09-30T06:27:14;100648.80;;;16.37;66.62
50484;BME280;36409;52.168;20.878;2023-09-30T06:29:43;100646.98;;;16.39;66.42
50484;BME280;36409;52.168;20.878;2023-09-30T06:32:12;100649.56;;;16.41;66.89
50484;BME280;36409;52.168;20.878;2023-09-30T06:34:42;100648.64;;;16.42;66.39
50484;BME280;36409;52.168;20.878;2023-09-30T06:37:13;100655.64;;;16.43;66.68
50484;BME280;36409;52.168;20.878;2023-09-30T06:39:42;100659.94;;;16.45;67.22
50484;BME280;36409;52.168;20.878;2023-09-30T06:42:11;100659.91;;;16.47;67.25
50484;BME280;36409;52.168;20.878;2023-09-30T06:44:40;100658.99;;;16.48;67.11
50484;BME280;36409;52.168;20.878;2023-09-30T06:47:09;100662.41;;;16.50;67.02
50484;BME280;36409;52.168;20.878;2023-09-30T06:49:44;100666.77;;;16.51;67.34
50484;BME280;36409;52.168;20.878;2023-09-30T06:52:15;100662.38;;;16.51;67.21
50484;BME280;36409;52.168;20.878;2023-09-30T06:54:43;100678.09;;;16.55;67.51
50484;BME280;36409;52.168;20.878;2023-09-30T06:57:14;100671.94;;;16.54;67.40
50484;BME280;36409;52.168;20.878;2023-09-30T06:59:43;100678.02;;;16.56;67.61
50484;BME280;36409;52.168;20.878;2023-09-30T07:02:15;100679.75;;;16.57;67.84
50484;BME280;36409;52.168;20.878;2023-09-30T07:04:44;100682.28;;;16.60;67.93
50484;BME280;36409;52.168;20.878;2023-09-30T07:07:13;100676.95;;;16.62;68.06
50484;BME280;36409;52.168;20.878;2023-09-30T07:09:44;100688.30;;;16.64;67.61
50484;BME280;36409;52.168;20.878;2023-09-30T07:12:13;100686.52;;;16.64;67.70
50484;BME280;36409;52.168;20.878;2023-09-30T07:14:42;100689.12;;;16.66;67.85
50484;BME280;36409;52.168;20.878;2023-09-30T07:17:11;100690.81;;;16.67;68.08
50484;BME280;36409;52.168;20.878;2023-09-30T07:19:40;100687.23;;;16.70;67.92
50484;BME280;36409;52.168;20.878;2023-09-30T07:22:09;100688.89;;;16.72;68.40
50484;BME280;36409;52.168;20.878;2023-09-30T07:24:39;100696.70;;;16.75;68.48
50484;BME280;36409;52.168;20.878;2023-09-30T07:27:08;100692.24;;;16.77;68.74
50484;BME280;36409;52.168;20.878;2023-09-30T07:29:55;100692.11;;;16.80;68.81
50484;BME280;36409;52.168;20.878;2023-09-30T07:32:27;100699.98;;;16.82;68.52
50484;BME280;36409;52.168;20.878;2023-09-30T07:34:56;100699.86;;;16.85;68.75
50484;BME280;36409;52.168;20.878;2023-09-30T07:37:26;100698.03;;;16.87;68.61
50484;BME280;36409;52.168;20.878;2023-09-30T07:39:54;100704.86;;;16.93;68.87
50484;BME280;36409;52.168;20.878;2023-09-30T07:42:24;100702.91;;;17.00;68.82
50484;BME280;36409;52.168;20.878;2023-09-30T07:44:53;100701.72;;;17.08;68.77
50484;BME280;36409;52.168;20.878;2023-09-30T07:47:22;100702.19;;;17.20;69.06
50484;BME280;36409;52.168;20.878;2023-09-30T07:49:54;100699.11;;;17.32;69.17
50484;BME280;36409;52.168;20.878;2023-09-30T07:52:24;100701.29;;;17.44;69.18
50484;BME280;36409;52.168;20.878;2023-09-30T07:54:52;100702.41;;;17.61;69.00
50484;BME280;36409;52.168;20.878;2023-09-30T07:57:21;100700.95;;;17.76;69.34
50484;BME280;36409;52.168;20.878;2023-09-30T07:59:53;100704.11;;;17.86;69.06
50484;BME280;36409;52.168;20.878;2023-09-30T08:02:24;100708.28;;;17.91;69.09
50484;BME280;36409;52.168;20.878;2023-09-30T08:04:56;100701.97;;;17.96;69.09
50484;BME280;36409;52.168;20.878;2023-09-30T08:07:27;100702.77;;;17.98;69.50
50484;BME280;36409;52.168;20.878;2023-09-30T08:09:56;100701.86;;;17.99;69.57
50484;BME280;36409;52.168;20.878;2023-09-30T08:12:26;100709.73;;;18.00;69.49
50484;BME280;36409;52.168;20.878;2023-09-30T08:14:54;100713.30;;;17.99;69.38
50484;BME280;36409;52.168;20.878;2023-09-30T08:17:29;100715.06;;;17.99;69.29
50484;BME280;36409;52.168;20.878;2023-09-30T08:19:58;100711.50;;;18.00;69.14
50484;BME280;36409;52.168;20.878;2023-09-30T08:22:27;100721.08;;;18.02;69.31
50484;BME280;36409;52.168;20.878;2023-09-30T08:24:56;100719.23;;;18.04;69.46
50484;BME280;36409;52.168;20.878;2023-09-30T08:27:26;100708.67;;;18.04;69.36
50484;BME280;36409;52.168;20.878;2023-09-30T08:29:55;100711.28;;;18.06;69.49
50484;BME280;36409;52.168;20.878;2023-09-30T08:32:24;100715.56;;;18.09;69.24
50484;BME280;36409;52.168;20.878;2023-09-30T08:34:53;100712.92;;;18.09;69.42
50484;BME280;36409;52.168;20.878;2023-09-30T08:37:23;100714.64;;;18.10;69.74
50484;BME280;36409;52.168;20.878;2023-09-30T08:39:54;100719.97;;;18.08;69.54
50484;BME280;36409;52.168;20.878;2023-09-30T08:42:23;100719.20;;;18.06;69.62
50484;BME280;36409;52.168;20.878;2023-09-30T08:44:56;100721.08;;;18.02;69.38
50484;BME280;36409;52.168;20.878;2023-09-30T08:47:27;100717.66;;;18.00;69.69
50484;BME280;36409;52.168;20.878;2023-09-30T08:50:00;100713.30;;;17.99;69.60
50484;BME280;36409;52.168;20.878;2023-09-30T08:52:34;100722.94;;;18.00;69.72
50484;BME280;36409;52.168;20.878;2023-09-30T08:55:09;100729.14;;;17.99;69.85
50484;BME280;36409;52.168;20.878;2023-09-30T08:57:42;100731.78;;;17.99;69.92
50484;BME280;36409;52.168;20.878;2023-09-30T09:00:18;100734.35;;;18.01;69.79
50484;BME280;36409;52.168;20.878;2023-09-30T09:02:48;100736.92;;;18.02;70.07
50484;BME280;36409;52.168;20.878;2023-09-30T09:05:18;100740.48;;;18.01;69.51
50484;BME280;36409;52.168;20.878;2023-09-30T09:07:47;100745.76;;;18.01;70.29
50484;BME280;36409;52.168;20.878;2023-09-30T09:10:18;100739.70;;;17.99;69.95
50484;BME280;36409;52.168;20.878;2023-09-30T09:12:55;100747.70;;;17.96;69.88
50484;BME280;36409;52.168;20.878;2023-09-30T09:15:27;100745.25;;;17.91;69.90
50484;BME280;36409;52.168;20.878;2023-09-30T09:17:57;100744.38;;;17.91;69.94
50484;BME280;36409;52.168;20.878;2023-09-30T09:20:27;100750.59;;;17.90;70.28
50484;BME280;36409;52.168;20.878;2023-09-30T09:22:56;100753.28;;;17.88;70.06
50484;BME280;36409;52.168;20.878;2023-09-30T09:25:28;100743.63;;;17.87;70.26
50484;BME280;36409;52.168;20.878;2023-09-30T09:27:57;100751.63;;;17.86;70.48
50484;BME280;36409;52.168;20.878;2023-09-30T09:30:27;100748.98;;;17.86;70.22
50484;BME280;36409;52.168;20.878;2023-09-30T09:33:02;100749.91;;;17.85;70.15
50484;BME280;36409;52.168;20.878;2023-09-30T09:35:38;100753.45;;;17.84;70.31
50484;BME280;36409;52.168;20.878;2023-09-30T09:38:08;100756.17;;;17.82;70.53
50484;BME280;36409;52.168;20.878;2023-09-30T09:40:41;100755.44;;;17.79;70.68
50484;BME280;36409;52.168;20.878;2023-09-30T09:43:10;100759.03;;;17.76;70.43
50484;BME280;36409;52.168;20.878;2023-09-30T09:45:39;100760.02;;;17.73;70.57
50484;BME280;36409;52.168;20.878;2023-09-30T09:48:12;100769.83;;;17.70;70.68
50484;BME280;36409;52.168;20.878;2023-09-30T09:50:41;100777.02;;;17.66;70.85
50484;BME280;36409;52.168;20.878;2023-09-30T09:53:17;100783.38;;;17.60;70.85
50484;BME280;36409;52.168;20.878;2023-09-30T09:55:47;100781.83;;;17.55;70.73
50484;BME280;36409;52.168;20.878;2023-09-30T09:58:19;100781.12;;;17.50;70.84
50484;BME280;36409;52.168;20.878;2023-09-30T10:00:50;100787.31;;;17.49;70.88
50484;BME280;36409;52.168;20.878;2023-09-30T10:03:20;100785.59;;;17.48;71.08
50484;BME280;36409;52.168;20.878;2023-09-30T10:05:50;100797.97;;;17.45;71.50
50484;BME280;36409;52.168;20.878;2023-09-30T10:08:21;100790.05;;;17.45;71.36
50484;BME280;36409;52.168;20.878;2023-09-30T10:11:00;100797.29;;;17.40;71.28
50484;BME280;36409;52.168;20.878;2023-09-30T10:13:56;100802.73;;;17.36;71.11
50484;BME280;36409;52.168;20.878;2023-09-30T10:16:50;100810.81;;;17.31;71.57
50484;BME280;36409;52.168;20.878;2023-09-30T10:19:22;100811.02;;;17.25;71.71
50484;BME280;36409;52.168;20.878;2023-09-30T10:22:22;100815.47;;;17.23;71.70
50484;BME280;36409;52.168;20.878;2023-09-30T10:24:54;100818.27;;;17.18;71.70
50484;BME280;36409;52.168;20.878;2023-09-30T10:27:33;100824.59;;;17.14;71.52
50484;BME280;36409;52.168;20.878;2023-09-30T10:30:13;100824.63;;;17.12;71.86
50484;BME280;36409;52.168;20.878;2023-09-30T10:33:10;100831.75;;;17.10;71.81
50484;BME280;36409;52.168;20.878;2023-09-30T10:35:48;100840.77;;;17.03;71.73
50484;BME280;36409;52.168;20.878;2023-09-30T10:38:39;100840.02;;;17.00;71.48
50484;BME280;36409;52.168;20.878;2023-09-30T10:41:09;100851.63;;;16.94;72.14
50484;BME280;36409;52.168;20.878;2023-09-30T10:43:41;100853.53;;;16.89;71.72
50484;BME280;36409;52.168;20.878;2023-09-30T10:46:32;100862.38;;;16.86;71.99
50484;BME280;36409;52.168;20.878;2023-09-30T10:49:18;100870.50;;;16.80;72.15
50484;BME280;36409;52.168;20.878;2023-09-30T10:52:00;100875.28;;;16.67;72.16
50484;BME280;36409;52.168;20.878;2023-09-30T10:54:31;100877.30;;;16.59;72.17
50484;BME280;36409;52.168;20.878;2023-09-30T10:57:01;100882.78;;;16.52;72.32
50484;BME280;36409;52.168;20.878;2023-09-30T10:59:32;100884.59;;;16.50;72.02
50484;BME280;36409;52.168;20.878;2023-09-30T11:02:03;100904.08;;;16.45;72.06
50484;BME280;36409;52.168;20.878;2023-09-30T11:04:46;100897.31;;;16.36;72.01
50484;BME280;36409;52.168;20.878;2023-09-30T11:07:22;100893.14;;;16.29;72.46
50484;BME280;36409;52.168;20.878;2023-09-30T11:09:54;100898.58;;;16.23;72.03
50484;BME280;36409;52.168;20.878;2023-09-30T11:12:24;100903.00;;;16.22;72.40
50484;BME280;36409;52.168;20.878;2023-09-30T11:15:01;100900.28;;;16.25;72.33
50484;BME280;36409;52.168;20.878;2023-09-30T11:17:33;100904.53;;;16.29;72.82
50484;BME280;36409;52.168;20.878;2023-09-30T11:20:04;100898.33;;;16.32;72.46
50484;BME280;36409;52.168;20.878;2023-09-30T11:22:35;100913.20;;;16.33;72.28
50484;BME280;36409;52.168;20.878;2023-09-30T11:25:05;100910.48;;;16.36;72.65
50484;BME280;36409;52.168;20.878;2023-09-30T11:27:35;100906.12;;;16.35;71.99
50484;BME280;36409;52.168;20.878;2023-09-30T11:30:06;100910.41;;;16.39;72.32
50484;BME280;36409;52.168;20.878;2023-09-30T11:32:36;100907.69;;;16.42;72.60
50484;BME280;36409;52.168;20.878;2023-09-30T11:35:10;100901.30;;;16.49;72.59
50484;BME280;36409;52.168;20.878;2023-09-30T11:37:52;100906.20;;;16.62;72.68
50484;BME280;36409;52.168;20.878;2023-09-30T11:40:21;100900.84;;;16.65;71.93
50484;BME280;36409;52.168;20.878;2023-09-30T11:43:10;100901.64;;;16.67;72.16
50484;BME280;36409;52.168;20.878;2023-09-30T11:45:43;100911.19;;;16.71;72.33
50484;BME280;36409;52.168;20.878;2023-09-30T11:48:19;100910.28;;;16.72;72.10
50484;BME280;36409;52.168;20.878;2023-09-30T11:50:51;100909.37;;;16.73;72.01
50484;BME280;36409;52.168;20.878;2023-09-30T11:53:28;100912.91;;;16.72;72.18
50484;BME280;36409;52.168;20.878;2023-09-30T11:55:59;100905.91;;;16.71;71.93
50484;BME280;36409;52.168;20.878;2023-09-30T11:58:34;100892.29;;;16.85;72.09
50484;BME280;36409;52.168;20.878;2023-09-30T12:01:03;100884.34;;;17.15;72.22
50484;BME280;36409;52.168;20.878;2023-09-30T12:03:37;100879.17;;;17.37;71.94
50484;BME280;36409;52.168;20.878;2023-09-30T12:06:11;100886.57;;;17.53;72.02
50484;BME280;36409;52.168;20.878;2023-09-30T12:08:42;100890.44;;;17.68;71.80
50484;BME280;36409;52.168;20.878;2023-09-30T12:11:11;100886.61;;;17.77;71.25
50484;BME280;36409;52.168;20.878;2023-09-30T12:13:41;100891.66;;;17.83;71.38
50484;BME280;36409;52.168;20.878;2023-09-30T12:16:15;100890.54;;;17.90;70.75
50484;BME280;36409;52.168;20.878;2023-09-30T12:18:45;100884.77;;;18.04;70.97
50484;BME280;36409;52.168;20.878;2023-09-30T12:21:18;100893.02;;;18.18;71.03
50484;BME280;36409;52.168;20.878;2023-09-30T12:23:48;100892.34;;;18.37;70.81
50484;BME280;36409;52.168;20.878;2023-09-30T12:26:19;100906.00;;;18.48;70.79
50484;BME280;36409;52.168;20.878;2023-09-30T12:28:49;100900.27;;;18.59;70.49
50484;BME280;36409;52.168;20.878;2023-09-30T12:31:18;100898.98;;;18.70;69.91
50484;BME280;36409;52.168;20.878;2023-09-30T12:33:52;100896.52;;;18.65;69.88
50484;BME280;36409;52.168;20.878;2023-09-30T12:36:24;100894.39;;;18.75;69.93
50484;BME280;36409;52.168;20.878;2023-09-30T12:38:55;100892.05;;;18.89;69.58
50484;BME280;36409;52.168;20.878;2023-09-30T12:41:24;100891.78;;;18.97;69.53
50484;BME280;36409;52.168;20.878;2023-09-30T12:43:57;100891.89;;;18.94;68.98
50484;BME280;36409;52.168;20.878;2023-09-30T12:46:25;100889.59;;;18.85;68.97
50484;BME280;36409;52.168;20.878;2023-09-30T12:48:55;100892.05;;;18.89;68.82
50484;BME280;36409;52.168;20.878;2023-09-30T12:51:26;100896.08;;;19.00;68.49
50484;BME280;36409;52.168;20.878;2023-09-30T12:54:03;100893.16;;;19.06;68.46
50484;BME280;36409;52.168;20.878;2023-09-30T12:56:33;100892.13;;;19.10;68.53
50484;BME280;36409;52.168;20.878;2023-09-30T12:59:02;100896.17;;;19.19;68.00
50484;BME280;36409;52.168;20.878;2023-09-30T13:01:32;100894.86;;;19.29;67.54
50484;BME280;36409;52.168;20.878;2023-09-30T13:04:06;100890.81;;;19.41;67.43